Time,TemperatureF,DewpointF,PressureIn,WindDirection,WindDirectionDegrees,WindSpeedMPH,WindSpeedGustMPH,Humidity,HourlyPrecipIn,Conditions,Clouds,dailyrainin,SoftwareType,DateUTC
2013-04-07 00:00:00,43.3,25.4,30.00,SE,135,3.5,3.5,49,0.00,CLR,,0.00,WeatherDisplay:10.37,2013-04-07 04:00:00,
2013-04-07 00:01:00,43.5,25.6,30.00,East,90,2.3,2.3,49,0.00,CLR,,0.00,WeatherDisplay:10.37,2013-04-07 04:01:00,
2013-04-07 00:06:00,43.7,25.3,30.00,SE,135,3.5,3.5,48,0.00,CLR,,0.00,WeatherDisplay:10.37,2013-04-07 04:06:00,
2013-04-07 00:12:00,43.9,24.9,29.99,South,180,3.5,3.5,47,0.00,CLR,,0.00,WeatherDisplay:10.37,2013-04-07 04:12:00,
2013-04-07 00:17:00,44.1,25.1,29.99,East,90,2.3,2.3,47,0.00,CLR,,0.00,WeatherDisplay:10.37,2013-04-07 04:17:00,
2013-04-07 00:22:00,44.2,24.7,29.98,SE,135,3.5,3.5,46,0.00,CLR,,0.00,WeatherDisplay:10.37,2013-04-07 04:22:00,
2013-04-07 00:27:00,44.6,24.0,29.98,East,90,3.5,3.5,44,0.00,CLR,,0.00,WeatherDisplay:10.37,2013-04-07 04:27:00,
2013-04-07 00:32:00,44.8,23.6,29.98,SE,135,3.5,3.5,43,0.00,CLR,,0.00,WeatherDisplay:10.37,2013-04-07 04:32:00,
2013-04-07 00:37:00,45.5,23.1,29.98,South,180,3.5,3.5,41,0.00,CLR,,0.00,WeatherDisplay:10.37,2013-04-07 04:37:00,
2013-04-07 00:42:00,46.4,20.9,29.98,East,90,4.6,4.6,36,0.00,CLR,,0.00,WeatherDisplay:10.37,2013-04-07 04:42:00,
2013-04-07 00:47:00,47.5,18.3,29.97,SE,135,5.8,5.8,31,0.00,CLR,,0.00,WeatherDisplay:10.37,2013-04-07 04:47:00,
2013-04-07 00:52:00,48.4,15.9,29.97,SE,135,8.1,8.1,27,0.00,CLR,,0.00,WeatherDisplay:10.37,2013-04-07 04:52:00,
2013-04-07 00:58:00,49.3,15.8,29.96,SE,135,5.8,5.8,26,0.00,CLR,,0.00,WeatherDisplay:10.37,2013-04-07 04:58:00,
2013-04-07 01:03:00,50.0,14.6,29.95,SE,135,10.4,10.4,24,0.00,CLR,,0.00,WeatherDisplay:10.37,2013-04-07 05:03:00,
2013-04-07 01:08:00,50.2,13.7,29.95,South,180,9.2,9.2,23,0.00,CLR,,0.00,WeatherDisplay:10.37,2013-04-07 05:08:00,
2013-04-07 01:13:00,50.2,13.7,29.94,East,90,10.4,10.4,23,0.00,CLR,,0.00,WeatherDisplay:10.37,2013-04-07 05:13:00,
2013-04-07 01:18:00,50.2,13.7,29.94,East,90,6.9,6.9,23,0.00,CLR,,0.00,WeatherDisplay:10.37,2013-04-07 05:18:00,
2013-04-07 01:23:00,50.4,13.9,29.94,SE,135,8.1,8.1,23,0.00,CLR,,0.00,WeatherDisplay:10.37,2013-04-07 05:23:00,
2013-04-07 01:28:00,50.4,13.9,29.93,South,180,8.1,8.1,23,0.00,CLR,,0.00,WeatherDisplay:10.37,2013-04-07 05:28:00,
2013-04-07 01:33:00,50.7,14.2,29.93,SE,135,9.2,9.2,23,0.00,CLR,,0.00,WeatherDisplay:10.37,2013-04-07 05:33:00,
2013-04-07 01:38:00,50.9,14.4,29.93,SE,135,11.5,11.5,23,0.00,CLR,,0.00,WeatherDisplay:10.37,2013-04-07 05:38:00,
2013-04-07 01:43:00,51.1,14.5,29.93,SE,135,11.5,11.5,23,0.00,CLR,,0.00,WeatherDisplay:10.37,2013-04-07 05:43:00,
2013-04-07 01:48:00,51.3,14.7,29.92,East,90,10.4,10.4,23,0.00,CLR,,0.00,WeatherDisplay:10.37,2013-04-07 05:48:00,
2013-04-07 01:53:00,51.3,14.7,29.92,South,180,9.2,9.2,23,0.00,CLR,,0.00,WeatherDisplay:10.37,2013-04-07 05:53:00,
2013-04-07 01:58:00,51.4,14.8,29.91,North,0,10.4,10.4,23,0.00,CLR,,0.00,WeatherDisplay:10.37,2013-04-07 05:58:00,
2013-04-07 02:03:00,51.4,14.8,29.91,East,90,10.4,10.4,23,0.00,CLR,,0.00,WeatherDisplay:10.37,2013-04-07 06:03:00,
2013-04-07 02:08:00,51.3,14.7,29.91,SE,135,9.2,9.2,23,0.00,CLR,,0.00,WeatherDisplay:10.37,2013-04-07 06:08:00,
2013-04-07 02:13:00,51.3,14.7,29.91,SE,135,9.2,9.2,23,0.00,CLR,,0.00,WeatherDisplay:10.37,2013-04-07 06:13:00,
2013-04-07 02:18:00,51.3,14.7,29.91,SE,135,8.1,8.1,23,0.00,CLR,,0.00,WeatherDisplay:10.37,2013-04-07 06:18:00,
2013-04-07 02:23:00,51.4,14.8,29.90,East,90,11.5,11.5,23,0.00,CLR,,0.00,WeatherDisplay:10.37,2013-04-07 06:23:00,
2013-04-07 02:28:00,51.3,15.6,29.90,South,180,5.8,5.8,24,0.00,CLR,,0.00,WeatherDisplay:10.37,2013-04-07 06:28:00,
2013-04-07 02:33:00,51.6,15.0,29.90,SW,225,15.0,15.0,23,0.00,CLR,,0.00,WeatherDisplay:10.37,2013-04-07 06:33:00,
2013-04-07 02:38:00,52.2,14.4,29.90,SW,225,10.4,10.4,22,0.00,CLR,,0.00,WeatherDisplay:10.37,2013-04-07 06:38:00,
2013-04-07 02:43:00,52.3,14.6,29.89,NNE,22,16.1,16.1,22,0.00,CLR,,0.00,WeatherDisplay:10.37,2013-04-07 06:43:00,
2013-04-07 02:48:00,52.3,14.6,29.89,SE,135,11.5,11.5,22,0.00,CLR,,0.00,WeatherDisplay:10.37,2013-04-07 06:48:00,
2013-04-07 02:53:00,52.3,14.6,29.88,SE,135,11.5,11.5,22,0.00,CLR,,0.00,WeatherDisplay:10.37,2013-04-07 06:53:00,
2013-04-07 02:58:00,52.5,14.7,29.88,SE,135,10.4,10.4,22,0.00,CLR,,0.00,WeatherDisplay:10.37,2013-04-07 06:58:00,
2013-04-07 03:04:00,52.5,14.7,29.88,NW,315,12.7,12.7,22,0.00,CLR,,0.00,WeatherDisplay:10.37,2013-04-07 07:04:00,
2013-04-07 03:09:00,52.5,14.7,29.88,SE,135,17.3,17.3,22,0.00,CLR,,0.00,WeatherDisplay:10.37,2013-04-07 07:09:00,
2013-04-07 03:14:00,52.5,14.7,29.88,South,180,8.1,8.1,22,0.00,CLR,,0.00,WeatherDisplay:10.37,2013-04-07 07:14:00,
2013-04-07 03:20:00,52.5,15.7,29.87,South,180,12.7,12.7,23,0.00,CLR,,0.00,WeatherDisplay:10.37,2013-04-07 07:20:00,
2013-04-07 03:25:00,52.2,15.4,29.87,SW,225,11.5,11.5,23,0.00,CLR,,0.00,WeatherDisplay:10.37,2013-04-07 07:25:00,
2013-04-07 03:30:00,52.0,15.3,29.86,NE,45,12.7,12.7,23,0.00,CLR,,0.00,WeatherDisplay:10.37,2013-04-07 07:30:00,
2013-04-07 03:35:00,52.0,15.3,29.86,SE,135,10.4,10.4,23,0.00,CLR,,0.00,WeatherDisplay:10.37,2013-04-07 07:35:00,
2013-04-07 03:40:00,52.2,16.4,29.86,SW,225,12.7,12.7,24,0.00,CLR,,0.00,WeatherDisplay:10.37,2013-04-07 07:40:00,
2013-04-07 03:45:00,52.2,16.4,29.86,SE,135,12.7,12.7,24,0.00,CLR,,0.00,WeatherDisplay:10.37,2013-04-07 07:45:00,
2013-04-07 03:50:00,52.0,17.2,29.85,SW,225,16.1,16.1,25,0.00,CLR,,0.00,WeatherDisplay:10.37,2013-04-07 07:50:00,
2013-04-07 03:55:00,52.2,17.3,29.85,NE,45,11.5,11.5,25,0.00,CLR,,0.00,WeatherDisplay:10.37,2013-04-07 07:55:00,
2013-04-07 04:00:00,52.2,17.3,29.85,South,180,17.3,17.3,25,0.00,CLR,,0.00,WeatherDisplay:10.37,2013-04-07 08:00:00,
2013-04-07 04:05:00,51.8,18.0,29.85,NE,45,15.0,15.0,26,0.00,CLR,,0.00,WeatherDisplay:10.37,2013-04-07 08:05:00,
2013-04-07 04:10:00,51.8,18.8,29.85,SW,225,18.4,18.4,27,0.00,CLR,,0.00,WeatherDisplay:10.37,2013-04-07 08:10:00,
2013-04-07 04:15:00,51.8,18.8,29.85,East,90,12.7,12.7,27,0.00,CLR,,0.00,WeatherDisplay:10.37,2013-04-07 08:15:00,
2013-04-07 04:20:00,51.6,19.5,29.85,NW,315,15.0,15.0,28,0.00,CLR,,0.00,WeatherDisplay:10.37,2013-04-07 08:20:00,
2013-04-07 04:25:00,52.0,19.8,29.84,SW,225,17.3,17.3,28,0.00,CLR,,0.00,WeatherDisplay:10.37,2013-04-07 08:25:00,
2013-04-07 04:30:00,52.0,20.7,29.84,SW,225,9.2,9.2,29,0.00,CLR,,0.00,WeatherDisplay:10.37,2013-04-07 08:30:00,
2013-04-07 04:35:00,51.8,21.3,29.84,SE,135,10.4,10.4,30,0.00,CLR,,0.00,WeatherDisplay:10.37,2013-04-07 08:35:00,
2013-04-07 04:40:00,51.6,23.4,29.83,South,180,10.4,10.4,33,0.00,CLR,,0.00,WeatherDisplay:10.37,2013-04-07 08:40:00,
2013-04-07 04:45:00,51.6,23.4,29.84,SSW,202,14.5,14.5,33,0.00,CLR,,0.00,WeatherDisplay:10.37,2013-04-07 08:45:00,
2013-04-07 04:50:00,51.6,23.4,29.83,South,180,12.7,12.7,33,0.00,CLR,,0.00,WeatherDisplay:10.37,2013-04-07 08:50:00,
2013-04-07 04:55:00,51.6,24.1,29.83,NW,315,17.3,17.3,34,0.00,CLR,,0.00,WeatherDisplay:10.37,2013-04-07 08:55:00,
2013-04-07 05:00:00,51.6,24.8,29.83,SE,135,13.8,13.8,35,0.00,CLR,,0.00,WeatherDisplay:10.37,2013-04-07 09:00:00,
2013-04-07 05:05:00,51.6,25.5,29.83,SE,135,11.5,11.5,36,0.00,CLR,,0.00,WeatherDisplay:10.37,2013-04-07 09:05:00,
2013-04-07 05:10:00,51.8,25.0,29.83,South,180,12.7,12.7,35,0.00,CLR,,0.00,WeatherDisplay:10.37,2013-04-07 09:10:00,
2013-04-07 05:15:00,52.3,25.5,29.82,South,180,13.8,13.8,35,0.00,CLR,,0.00,WeatherDisplay:10.37,2013-04-07 09:15:00,
2013-04-07 05:21:00,52.5,25.6,29.82,East,90,10.4,10.4,35,0.00,CLR,,0.00,WeatherDisplay:10.37,2013-04-07 09:21:00,
2013-04-07 05:26:00,52.9,25.9,29.82,SW,225,11.5,11.5,35,0.00,CLR,,0.00,WeatherDisplay:10.37,2013-04-07 09:26:00,
2013-04-07 05:31:00,53.1,25.4,29.81,NNE,22,19.6,19.6,34,0.00,CLR,,0.00,WeatherDisplay:10.37,2013-04-07 09:31:00,
2013-04-07 05:36:00,53.2,25.6,29.82,South,180,17.3,17.3,34,0.00,CLR,,0.00,WeatherDisplay:10.37,2013-04-07 09:36:00,
2013-04-07 05:41:00,53.1,25.4,29.82,SW,225,24.2,24.2,34,0.00,CLR,,0.00,WeatherDisplay:10.37,2013-04-07 09:41:00,
2013-04-07 05:46:00,52.9,25.9,29.81,South,180,17.3,17.3,35,0.00,CLR,,0.00,WeatherDisplay:10.37,2013-04-07 09:46:00,
2013-04-07 05:52:00,52.9,25.9,29.82,South,180,15.0,15.0,35,0.00,CLR,,0.00,WeatherDisplay:10.37,2013-04-07 09:52:00,
2013-04-07 05:57:00,52.7,25.8,29.82,NW,315,9.2,9.2,35,0.00,CLR,,0.00,WeatherDisplay:10.37,2013-04-07 09:57:00,
2013-04-07 06:02:00,52.9,25.9,29.82,South,180,10.4,10.4,35,0.00,CLR,,0.00,WeatherDisplay:10.37,2013-04-07 10:02:00,
2013-04-07 06:07:00,52.7,26.5,29.81,South,180,15.0,15.0,36,0.00,CLR,,0.00,WeatherDisplay:10.37,2013-04-07 10:07:00,
2013-04-07 06:12:00,52.7,26.5,29.81,West,270,12.7,12.7,36,0.00,CLR,,0.00,WeatherDisplay:10.37,2013-04-07 10:12:00,
2013-04-07 06:17:00,52.7,26.5,29.81,South,180,15.0,15.0,36,0.00,CLR,,0.00,WeatherDisplay:10.37,2013-04-07 10:17:00,
2013-04-07 06:22:00,52.7,26.5,29.81,South,180,15.0,15.0,36,0.00,CLR,,0.00,WeatherDisplay:10.37,2013-04-07 10:22:00,
2013-04-07 06:27:00,52.7,27.1,29.81,South,180,12.7,12.7,37,0.00,CLR,,0.00,WeatherDisplay:10.37,2013-04-07 10:27:00,
2013-04-07 06:32:00,52.7,27.1,29.81,SW,225,9.2,9.2,37,0.00,CLR,,0.00,WeatherDisplay:10.37,2013-04-07 10:32:00,
2013-04-07 06:38:00,52.9,27.3,29.81,South,180,10.4,10.4,37,0.00,CLR,,0.00,WeatherDisplay:10.37,2013-04-07 10:38:00,
2013-04-07 06:42:00,52.9,27.3,29.81,SE,135,15.0,15.0,37,0.00,CLR,,0.00,WeatherDisplay:10.37,2013-04-07 10:42:00,
2013-04-07 06:48:00,52.9,27.3,29.80,South,180,11.5,11.5,37,0.00,CLR,,0.00,WeatherDisplay:10.37,2013-04-07 10:48:00,
2013-04-07 06:53:00,52.9,27.9,29.80,SE,135,9.2,9.2,38,0.00,CLR,,0.00,WeatherDisplay:10.37,2013-04-07 10:53:00,
2013-04-07 06:58:00,52.9,27.3,29.80,South,180,13.8,13.8,37,0.00,CLR,,0.00,WeatherDisplay:10.37,2013-04-07 10:58:00,
2013-04-07 07:03:00,52.9,27.3,29.79,East,90,11.5,11.5,37,0.00,CLR,,0.00,WeatherDisplay:10.37,2013-04-07 11:03:00,
2013-04-07 07:08:00,53.2,27.6,29.79,NW,315,13.8,13.8,37,0.00,CLR,,0.00,WeatherDisplay:10.37,2013-04-07 11:08:00,
2013-04-07 07:13:00,53.4,27.8,29.78,SW,225,10.4,10.4,37,0.00,CLR,,0.00,WeatherDisplay:10.37,2013-04-07 11:13:00,
2013-04-07 07:18:00,53.6,27.3,29.78,SW,225,19.6,19.6,36,0.00,CLR,,0.00,WeatherDisplay:10.37,2013-04-07 11:18:00,
2013-04-07 07:23:00,53.6,27.3,29.78,SE,135,15.0,15.0,36,0.00,CLR,,0.00,WeatherDisplay:10.37,2013-04-07 11:23:00,
2013-04-07 07:28:00,53.2,28.3,29.78,SW,225,9.2,9.2,38,0.00,CLR,,0.00,WeatherDisplay:10.37,2013-04-07 11:28:00,
2013-04-07 07:33:00,53.2,29.5,29.77,SW,225,11.5,11.5,40,0.00,CLR,,0.00,WeatherDisplay:10.37,2013-04-07 11:33:00,
2013-04-07 07:38:00,53.8,29.4,29.77,WNW,292,12.7,12.7,39,0.00,CLR,,0.00,WeatherDisplay:10.37,2013-04-07 11:38:00,
2013-04-07 07:43:00,54.1,29.1,29.78,NW,315,17.3,17.3,38,0.00,CLR,,0.00,WeatherDisplay:10.37,2013-04-07 11:43:00,
2013-04-07 07:48:00,54.1,29.1,29.77,South,180,17.3,17.3,38,0.00,CLR,,0.00,WeatherDisplay:10.37,2013-04-07 11:48:00,
2013-04-07 07:53:00,54.3,29.2,29.77,South,180,19.6,19.6,38,0.00,CLR,,0.00,WeatherDisplay:10.37,2013-04-07 11:53:00,
2013-04-07 07:59:00,54.7,30.2,29.77,SW,225,15.0,15.0,39,0.00,CLR,,0.00,WeatherDisplay:10.37,2013-04-07 11:59:00,
2013-04-07 08:04:00,55.2,30.0,29.77,South,180,15.0,15.0,38,0.00,CLR,,0.00,WeatherDisplay:10.37,2013-04-07 12:04:00,
2013-04-07 08:09:00,55.4,29.5,29.77,NW,315,15.0,15.0,37,0.00,CLR,,0.00,WeatherDisplay:10.37,2013-04-07 12:09:00,
2013-04-07 08:14:00,55.4,29.5,29.76,South,180,18.4,18.4,37,0.00,CLR,,0.00,WeatherDisplay:10.37,2013-04-07 12:14:00,
2013-04-07 08:19:00,55.6,30.4,29.76,SW,225,17.5,17.5,38,0.00,CLR,,0.00,WeatherDisplay:10.37,2013-04-07 12:19:00,
2013-04-07 08:24:00,55.8,30.5,29.76,SE,135,10.4,10.4,38,0.00,CLR,,0.00,WeatherDisplay:10.37,2013-04-07 12:24:00,
2013-04-07 08:29:00,55.9,30.7,29.76,SW,225,17.3,17.3,38,0.00,CLR,,0.00,WeatherDisplay:10.37,2013-04-07 12:29:00,
2013-04-07 08:34:00,56.3,31.0,29.76,SW,225,12.7,12.7,38,0.00,CLR,,0.00,WeatherDisplay:10.37,2013-04-07 12:34:00,
2013-04-07 08:39:00,57.2,31.1,29.76,SW,225,15.0,15.0,37,0.00,CLR,,0.00,WeatherDisplay:10.37,2013-04-07 12:39:00,
2013-04-07 08:44:00,57.7,31.6,29.75,South,180,18.4,18.4,37,0.00,CLR,,0.00,WeatherDisplay:10.37,2013-04-07 12:44:00,
2013-04-07 08:49:00,57.9,31.8,29.75,SW,225,18.4,18.4,37,0.00,CLR,,0.00,WeatherDisplay:10.37,2013-04-07 12:49:00,
2013-04-07 08:54:00,57.7,31.6,29.75,SW,225,16.1,16.1,37,0.00,CLR,,0.00,WeatherDisplay:10.37,2013-04-07 12:54:00,
2013-04-07 09:00:00,57.9,31.8,29.75,NNE,22,15.0,15.0,37,0.00,CLR,,0.00,WeatherDisplay:10.37,2013-04-07 13:00:00,
2013-04-07 09:05:00,57.9,31.8,29.75,SW,225,12.7,12.7,37,0.00,CLR,,0.00,WeatherDisplay:10.37,2013-04-07 13:05:00,
2013-04-07 09:10:00,57.7,32.3,29.75,NW,315,15.0,15.0,38,0.00,CLR,,0.00,WeatherDisplay:10.37,2013-04-07 13:10:00,
2013-04-07 09:15:00,57.9,32.4,29.75,South,180,16.1,16.1,38,0.00,CLR,,0.00,WeatherDisplay:10.37,2013-04-07 13:15:00,
2013-04-07 09:20:00,58.3,32.8,29.75,SW,225,19.6,19.6,38,0.00,CLR,,0.00,WeatherDisplay:10.37,2013-04-07 13:20:00,
2013-04-07 09:25:00,58.3,33.4,29.75,South,180,15.0,15.0,39,0.00,CLR,,0.00,WeatherDisplay:10.37,2013-04-07 13:25:00,
2013-04-07 09:30:00,58.5,33.6,29.75,SW,225,12.7,14.5,39,0.00,CLR,,0.00,WeatherDisplay:10.37,2013-04-07 13:30:00,
2013-04-07 09:35:00,58.6,33.7,29.74,South,180,26.5,26.5,39,0.00,CLR,,0.00,WeatherDisplay:10.37,2013-04-07 13:35:00,
2013-04-07 09:40:00,58.3,35.3,29.75,South,180,23.0,23.0,42,0.00,CLR,,0.00,WeatherDisplay:10.37,2013-04-07 13:40:00,
2013-04-07 09:45:00,58.5,34.8,29.74,South,180,25.3,25.3,41,0.00,CLR,,0.00,WeatherDisplay:10.37,2013-04-07 13:45:00,
2013-04-07 09:50:00,58.5,34.8,29.74,SW,225,19.7,19.7,41,0.00,CLR,,0.00,WeatherDisplay:10.37,2013-04-07 13:50:00,
2013-04-07 09:55:00,58.8,35.2,29.74,SW,225,17.3,17.3,41,0.00,CLR,,0.00,WeatherDisplay:10.37,2013-04-07 13:55:00,
2013-04-07 10:00:00,58.5,34.8,29.74,South,180,17.3,17.3,41,0.00,CLR,,0.00,WeatherDisplay:10.37,2013-04-07 14:00:00,
2013-04-07 10:06:00,58.8,35.2,29.74,SW,225,15.0,15.0,41,0.00,CLR,,0.00,WeatherDisplay:10.37,2013-04-07 14:06:00,
2013-04-07 10:11:00,59.0,34.7,29.74,SW,225,15.0,15.0,40,0.00,CLR,,0.00,WeatherDisplay:10.37,2013-04-07 14:11:00,
2013-04-07 10:16:00,59.2,34.9,29.74,South,180,20.7,20.7,40,0.00,CLR,,0.00,WeatherDisplay:10.37,2013-04-07 14:16:00,
2013-04-07 10:21:00,59.4,35.0,29.74,SW,225,19.6,19.6,40,0.00,CLR,,0.00,WeatherDisplay:10.37,2013-04-07 14:21:00,
2013-04-07 10:26:00,59.4,35.0,29.74,NNW,338,13.8,13.8,40,0.00,CLR,,0.00,WeatherDisplay:10.37,2013-04-07 14:26:00,
2013-04-07 10:31:00,59.5,35.2,29.74,SW,225,17.3,17.3,40,0.00,CLR,,0.00,WeatherDisplay:10.37,2013-04-07 14:31:00,
2013-04-07 10:36:00,59.7,35.3,29.74,SW,225,16.1,16.1,40,0.00,CLR,,0.00,WeatherDisplay:10.37,2013-04-07 14:36:00,
2013-04-07 10:41:00,59.7,35.3,29.74,South,180,19.6,19.6,40,0.00,CLR,,0.00,WeatherDisplay:10.37,2013-04-07 14:41:00,
2013-04-07 10:47:00,59.9,35.5,29.74,South,180,17.3,17.3,40,0.00,CLR,,0.00,WeatherDisplay:10.37,2013-04-07 14:47:00,
2013-04-07 10:52:00,59.9,36.1,29.74,WNW,292,18.4,18.4,41,0.00,CLR,,0.00,WeatherDisplay:10.37,2013-04-07 14:52:00,
2013-04-07 10:57:00,59.9,36.1,29.74,SW,225,20.7,20.7,41,0.00,CLR,,0.00,WeatherDisplay:10.37,2013-04-07 14:57:00,
2013-04-07 11:02:00,60.1,36.9,29.75,South,180,19.6,19.6,42,0.00,CLR,,0.00,WeatherDisplay:10.37,2013-04-07 15:02:00,
2013-04-07 11:07:00,60.1,36.9,29.75,West,270,21.9,21.9,42,0.00,CLR,,0.00,WeatherDisplay:10.37,2013-04-07 15:07:00,
2013-04-07 11:12:00,60.3,37.7,29.74,NNE,22,19.6,19.6,43,0.00,CLR,,0.00,WeatherDisplay:10.37,2013-04-07 15:12:00,
2013-04-07 11:17:00,60.6,38.0,29.74,SW,225,18.4,18.4,43,0.00,CLR,,0.00,WeatherDisplay:10.37,2013-04-07 15:17:00,
2013-04-07 11:22:00,60.8,36.9,29.75,SW,225,18.4,18.4,41,0.00,CLR,,0.00,WeatherDisplay:10.37,2013-04-07 15:22:00,
2013-04-07 11:27:00,61.5,38.2,29.75,SW,225,20.7,20.7,42,0.00,CLR,,0.00,WeatherDisplay:10.37,2013-04-07 15:27:00,
2013-04-07 11:32:00,63.0,38.2,29.75,SW,225,15.0,15.0,40,0.00,CLR,,0.02,WeatherDisplay:10.37,2013-04-07 15:32:00,
2013-04-07 11:37:00,63.7,38.2,29.75,SW,225,18.4,18.4,39,0.02,RA,,0.02,WeatherDisplay:10.37,2013-04-07 15:37:00,
2013-04-07 11:43:00,63.3,37.9,29.75,SW,225,23.0,23.0,39,0.02,CLR,,0.02,WeatherDisplay:10.37,2013-04-07 15:43:00,
2013-04-07 11:48:00,63.3,38.6,29.75,SW,225,17.3,17.3,40,0.02,CLR,,0.02,WeatherDisplay:10.37,2013-04-07 15:48:00,
2013-04-07 11:53:00,63.5,39.4,29.75,NW,315,21.9,21.9,41,0.02,,,0.02,WeatherDisplay:10.37,2013-04-07 15:53:00,
2013-04-07 11:58:00,63.5,39.4,29.75,SW,225,25.3,25.3,41,0.02,,,0.02,WeatherDisplay:10.37,2013-04-07 15:58:00,
2013-04-07 12:03:00,64.4,40.2,29.75,South,180,13.8,13.8,41,0.02,,,0.02,WeatherDisplay:10.37,2013-04-07 16:03:00,
2013-04-07 12:08:00,65.1,40.2,29.76,SW,225,18.4,18.4,40,0.02,,,0.02,WeatherDisplay:10.37,2013-04-07 16:08:00,
2013-04-07 12:13:00,64.6,39.0,29.76,SW,225,17.3,17.3,39,0.02,,,0.02,WeatherDisplay:10.37,2013-04-07 16:13:00,
2013-04-07 12:18:00,63.9,39.1,29.77,SW,225,19.6,19.6,40,0.02,,,0.02,WeatherDisplay:10.37,2013-04-07 16:18:00,
2013-04-07 12:23:00,64.6,41.0,29.77,SW,225,19.6,19.6,42,0.02,,,0.02,WeatherDisplay:10.37,2013-04-07 16:23:00,
2013-04-07 12:28:00,64.9,41.9,29.76,NW,315,32.2,32.2,43,0.02,,,0.02,WeatherDisplay:10.37,2013-04-07 16:28:00,
2013-04-07 12:33:00,64.9,42.5,29.76,SW,225,25.3,25.3,44,0.00,,,0.02,WeatherDisplay:10.37,2013-04-07 16:33:00,
2013-04-07 12:38:00,65.7,43.7,29.76,NW,315,26.5,26.5,45,0.00,,,0.02,WeatherDisplay:10.37,2013-04-07 16:38:00,
2013-04-07 12:43:00,65.5,43.6,29.76,SW,225,20.7,20.7,45,0.00,,,0.02,WeatherDisplay:10.37,2013-04-07 16:43:00,
2013-04-07 12:48:00,64.9,43.1,29.75,SW,225,19.6,19.6,45,0.00,,,0.02,WeatherDisplay:10.37,2013-04-07 16:48:00,
2013-04-07 12:53:00,64.6,43.3,29.76,NW,315,17.3,17.3,46,0.00,,,0.02,WeatherDisplay:10.37,2013-04-07 16:53:00,
2013-04-07 12:58:00,64.8,43.5,29.76,South,180,19.6,19.6,46,0.00,,,0.02,WeatherDisplay:10.37,2013-04-07 16:58:00,
2013-04-07 13:04:00,65.1,44.4,29.76,West,270,12.7,12.7,47,0.00,,,0.02,WeatherDisplay:10.37,2013-04-07 17:04:00,
2013-04-07 13:09:00,65.1,44.4,29.76,SE,135,16.1,16.1,47,0.00,,,0.02,WeatherDisplay:10.37,2013-04-07 17:09:00,
2013-04-07 13:14:00,65.3,44.5,29.76,South,180,31.1,31.1,47,0.02,RA,,0.05,WeatherDisplay:10.37,2013-04-07 17:14:00,
2013-04-07 13:19:00,65.7,44.9,29.76,SW,225,11.5,11.5,47,0.02,RA,,0.05,WeatherDisplay:10.37,2013-04-07 17:19:00,
2013-04-07 13:24:00,66.6,45.1,29.76,SW,225,21.9,21.9,46,0.02,,,0.05,WeatherDisplay:10.37,2013-04-07 17:24:00,
2013-04-07 13:29:00,66.7,45.3,29.76,NW,315,16.1,16.1,46,0.02,,,0.05,WeatherDisplay:10.37,2013-04-07 17:29:00,
2013-04-07 13:34:00,67.8,46.3,29.76,SW,225,9.8,9.8,46,0.02,,,0.05,WeatherDisplay:10.37,2013-04-07 17:34:00,
2013-04-07 13:40:00,67.8,45.7,29.75,SW,225,28.8,28.8,45,0.02,,,0.05,WeatherDisplay:10.37,2013-04-07 17:40:00,
2013-04-07 13:45:00,67.8,45.7,29.76,South,180,20.7,20.7,45,0.02,,,0.05,WeatherDisplay:10.37,2013-04-07 17:45:00,
2013-04-07 13:50:00,67.8,45.7,29.76,West,270,15.0,15.0,45,0.02,,,0.05,WeatherDisplay:10.37,2013-04-07 17:50:00,
2013-04-07 13:55:00,68.2,45.4,29.75,North,0,13.8,13.8,44,0.02,,,0.05,WeatherDisplay:10.37,2013-04-07 17:55:00,
2013-04-07 14:00:00,68.4,45.0,29.76,SW,225,20.7,20.7,43,0.02,,,0.05,WeatherDisplay:10.37,2013-04-07 18:00:00,
2013-04-07 14:05:00,68.2,44.8,29.76,NNE,16,19.6,19.6,43,0.02,,,0.05,WeatherDisplay:10.37,2013-04-07 18:05:00,
2013-04-07 14:10:00,68.4,45.6,29.76,West,270,15.0,15.0,44,0.02,,,0.05,WeatherDisplay:10.37,2013-04-07 18:10:00,
2013-04-07 14:15:00,69.3,45.8,29.76,SW,225,20.7,20.7,43,0.00,,,0.05,WeatherDisplay:10.37,2013-04-07 18:15:00,
2013-04-07 14:20:00,69.4,46.0,29.76,West,270,12.7,12.7,43,0.00,,,0.05,WeatherDisplay:10.37,2013-04-07 18:20:00,
2013-04-07 14:25:00,68.2,44.8,29.75,SW,225,26.5,26.5,43,0.00,,,0.05,WeatherDisplay:10.37,2013-04-07 18:25:00,
2013-04-07 14:30:00,68.4,45.0,29.76,NW,315,21.9,21.9,43,0.00,,,0.05,WeatherDisplay:10.37,2013-04-07 18:30:00,
2013-04-07 14:35:00,68.5,45.1,29.77,NW,315,12.7,12.7,43,0.00,,,0.05,WeatherDisplay:10.37,2013-04-07 18:35:00,
2013-04-07 14:40:00,68.7,45.3,29.77,West,270,20.7,20.7,43,0.00,,,0.05,WeatherDisplay:10.37,2013-04-07 18:40:00,
2013-04-07 14:45:00,68.9,44.9,29.77,South,180,12.7,12.7,42,0.00,,,0.05,WeatherDisplay:10.37,2013-04-07 18:45:00,
2013-04-07 14:50:00,68.5,43.9,29.78,NW,315,26.5,26.5,41,0.00,,,0.05,WeatherDisplay:10.37,2013-04-07 18:50:00,
2013-04-07 14:55:00,68.4,43.7,29.78,West,270,25.3,25.3,41,0.02,RA,,0.07,WeatherDisplay:10.37,2013-04-07 18:55:00,
2013-04-07 15:00:00,68.7,44.1,29.79,NW,315,10.4,10.4,41,0.02,RA,,0.07,WeatherDisplay:10.37,2013-04-07 19:00:00,
2013-04-07 15:05:00,68.9,44.9,29.79,South,180,19.6,19.6,42,0.02,,,0.07,WeatherDisplay:10.37,2013-04-07 19:05:00,
2013-04-07 15:10:00,67.3,44.0,29.79,West,270,13.8,13.8,43,0.02,,,0.07,WeatherDisplay:10.37,2013-04-07 19:10:00,
2013-04-07 15:16:00,67.3,44.6,29.79,SE,135,18.4,18.4,44,0.02,,,0.07,WeatherDisplay:10.37,2013-04-07 19:16:00,
2013-04-07 15:21:00,64.2,43.0,29.79,NW,315,17.3,17.3,46,0.02,,,0.07,WeatherDisplay:10.37,2013-04-07 19:21:00,
2013-04-07 15:26:00,63.5,44.5,29.80,SE,135,16.1,16.1,50,0.02,,,0.07,WeatherDisplay:10.37,2013-04-07 19:26:00,
2013-04-07 15:31:00,63.7,45.2,29.81,SW,225,20.7,20.7,51,0.02,,,0.07,WeatherDisplay:10.37,2013-04-07 19:31:00,
2013-04-07 15:36:00,63.7,45.2,29.81,SW,225,13.8,13.8,51,0.02,,,0.07,WeatherDisplay:10.37,2013-04-07 19:36:00,
2013-04-07 15:41:00,63.7,45.2,29.81,South,180,17.3,17.3,51,0.02,,,0.07,WeatherDisplay:10.37,2013-04-07 19:41:00,
2013-04-07 15:46:00,64.2,45.7,29.81,NW,315,8.1,8.1,51,0.02,,,0.07,WeatherDisplay:10.37,2013-04-07 19:46:00,
2013-04-07 15:51:00,63.9,44.3,29.82,South,180,13.8,13.8,49,0.02,,,0.07,WeatherDisplay:10.37,2013-04-07 19:51:00,
2013-04-07 15:57:00,62.1,44.2,29.81,South,180,18.4,18.4,52,0.00,,,0.07,WeatherDisplay:10.37,2013-04-07 19:57:00,
2013-04-07 16:02:00,61.5,44.2,29.82,NNE,22,12.7,12.7,53,0.00,,,0.07,WeatherDisplay:10.37,2013-04-07 20:02:00,
2013-04-07 16:07:00,61.5,43.7,29.82,SW,225,17.3,17.3,52,0.00,,,0.07,WeatherDisplay:10.37,2013-04-07 20:07:00,
2013-04-07 16:13:00,61.0,43.7,29.82,South,180,11.5,11.5,53,0.00,,,0.07,WeatherDisplay:10.37,2013-04-07 20:13:00,
2013-04-07 16:18:00,60.1,43.4,29.83,SW,225,18.4,18.4,54,0.00,,,0.07,WeatherDisplay:10.37,2013-04-07 20:18:00,
2013-04-07 16:23:00,58.5,42.8,29.83,SW,225,17.3,17.3,56,0.00,,,0.07,WeatherDisplay:10.37,2013-04-07 20:23:00,
2013-04-07 16:28:00,58.1,43.4,29.84,South,180,5.8,5.8,58,0.00,,,0.07,WeatherDisplay:10.37,2013-04-07 20:28:00,
2013-04-07 16:33:00,59.9,44.2,29.84,NW,315,6.9,6.9,56,0.00,,,0.07,WeatherDisplay:10.37,2013-04-07 20:33:00,
2013-04-07 16:38:00,58.8,42.7,29.85,SW,225,13.8,13.8,55,0.00,,,0.07,WeatherDisplay:10.37,2013-04-07 20:38:00,
2013-04-07 16:43:00,58.3,42.6,29.85,SE,135,12.7,12.7,56,0.00,,,0.07,WeatherDisplay:10.37,2013-04-07 20:43:00,
2013-04-07 16:48:00,58.5,43.3,29.85,NW,315,5.8,5.8,57,0.00,,,0.07,WeatherDisplay:10.37,2013-04-07 20:48:00,
2013-04-07 16:53:00,59.2,43.5,29.86,SW,225,8.1,8.1,56,0.00,,,0.07,WeatherDisplay:10.37,2013-04-07 20:53:00,
2013-04-07 16:58:00,59.2,43.0,29.86,South,180,10.4,10.4,55,0.00,,,0.07,WeatherDisplay:10.37,2013-04-07 20:58:00,
2013-04-07 17:03:00,57.7,42.6,29.86,South,180,8.1,8.1,57,0.00,,,0.07,WeatherDisplay:10.37,2013-04-07 21:03:00,
2013-04-07 17:08:00,59.0,43.3,29.87,West,270,8.1,8.1,56,0.00,,,0.07,WeatherDisplay:10.37,2013-04-07 21:08:00,
2013-04-07 17:14:00,59.0,42.4,29.88,SW,225,10.4,10.4,54,0.00,,,0.07,WeatherDisplay:10.37,2013-04-07 21:14:00,
2013-04-07 17:19:00,58.1,42.5,29.88,NE,45,5.8,5.8,56,0.00,,,0.07,WeatherDisplay:10.37,2013-04-07 21:19:00,
2013-04-07 17:25:00,57.7,42.1,29.88,West,270,9.2,9.2,56,0.00,,,0.07,WeatherDisplay:10.37,2013-04-07 21:25:00,
2013-04-07 17:30:00,57.0,42.4,29.89,SW,225,2.3,2.3,58,0.00,,,0.07,WeatherDisplay:10.37,2013-04-07 21:30:00,
2013-04-07 17:35:00,57.0,42.4,29.89,NW,315,3.5,3.5,58,0.00,,,0.07,WeatherDisplay:10.37,2013-04-07 21:35:00,
2013-04-07 17:40:00,57.7,42.6,29.90,NW,315,6.9,6.9,57,0.00,,,0.07,WeatherDisplay:10.37,2013-04-07 21:40:00,
2013-04-07 17:45:00,56.5,40.5,29.90,NW,315,10.4,10.4,55,0.00,,,0.07,WeatherDisplay:10.37,2013-04-07 21:45:00,
2013-04-07 17:50:00,56.8,40.8,29.91,NW,315,8.1,8.1,55,0.00,,,0.07,WeatherDisplay:10.37,2013-04-07 21:50:00,
2013-04-07 17:55:00,56.5,40.0,29.91,West,270,5.8,5.8,54,0.00,,,0.07,WeatherDisplay:10.37,2013-04-07 21:55:00,
2013-04-07 18:00:00,56.5,41.0,29.91,NE,45,5.4,5.4,56,0.00,,,0.07,WeatherDisplay:10.37,2013-04-07 22:00:00,
2013-04-07 18:05:00,55.8,39.8,29.90,NW,315,10.4,10.4,55,0.00,,,0.07,WeatherDisplay:10.37,2013-04-07 22:05:00,
2013-04-07 18:10:00,54.3,38.0,29.91,NW,315,9.2,9.2,54,0.00,,,0.07,WeatherDisplay:10.37,2013-04-07 22:10:00,
2013-04-07 18:15:00,54.3,38.5,29.91,NW,315,5.8,5.8,55,0.00,,,0.07,WeatherDisplay:10.37,2013-04-07 22:15:00,
2013-04-07 18:20:00,54.1,38.3,29.92,West,270,5.8,5.8,55,0.00,,,0.07,WeatherDisplay:10.37,2013-04-07 22:20:00,
2013-04-07 18:25:00,53.8,38.0,29.92,NW,315,9.2,9.2,55,0.00,,,0.07,WeatherDisplay:10.37,2013-04-07 22:25:00,
2013-04-07 18:30:00,53.4,38.6,29.93,NW,315,3.5,3.5,57,0.00,,,0.07,WeatherDisplay:10.37,2013-04-07 22:30:00,
2013-04-07 18:35:00,53.4,38.6,29.93,WNW,292,9.2,9.2,57,0.00,,,0.07,WeatherDisplay:10.37,2013-04-07 22:35:00,
2013-04-07 18:40:00,53.1,38.2,29.93,NW,315,9.2,9.2,57,0.00,,,0.07,WeatherDisplay:10.37,2013-04-07 22:40:00,
2013-04-07 18:45:00,52.5,37.7,29.94,NW,315,8.1,8.1,57,0.00,,,0.07,WeatherDisplay:10.37,2013-04-07 22:45:00,
2013-04-07 18:51:00,52.2,37.4,29.93,NW,315,10.4,10.4,57,0.00,,,0.07,WeatherDisplay:10.37,2013-04-07 22:51:00,
2013-04-07 18:56:00,51.6,37.3,29.94,NW,315,6.9,6.9,58,0.00,,,0.07,WeatherDisplay:10.37,2013-04-07 22:56:00,
2013-04-07 19:02:00,51.3,37.4,29.94,NW,315,5.8,5.8,59,0.00,,,0.07,WeatherDisplay:10.37,2013-04-07 23:02:00,
2013-04-07 19:07:00,51.1,37.2,29.94,NW,315,9.2,9.2,59,0.00,,,0.07,WeatherDisplay:10.37,2013-04-07 23:07:00,
2013-04-07 19:13:00,50.5,37.2,29.95,NW,315,8.1,8.1,60,0.00,,,0.07,WeatherDisplay:10.37,2013-04-07 23:13:00,
2013-04-07 19:18:00,50.2,36.8,29.95,NW,315,10.4,10.4,60,0.00,,,0.07,WeatherDisplay:10.37,2013-04-07 23:18:00,
2013-04-07 19:23:00,50.0,37.1,29.95,NW,315,5.8,5.8,61,0.00,,,0.07,WeatherDisplay:10.37,2013-04-07 23:23:00,
2013-04-07 19:28:00,49.5,37.0,29.95,NW,315,12.7,12.7,62,0.00,,,0.07,WeatherDisplay:10.37,2013-04-07 23:28:00,
2013-04-07 19:33:00,49.3,37.2,29.96,NW,315,8.1,8.1,63,0.00,,,0.07,WeatherDisplay:10.37,2013-04-07 23:33:00,
2013-04-07 19:38:00,48.9,36.9,29.96,NW,315,6.9,6.9,63,0.00,,,0.07,WeatherDisplay:10.37,2013-04-07 23:38:00,
2013-04-07 19:43:00,48.6,36.9,29.96,South,180,4.6,4.6,64,0.00,,,0.07,WeatherDisplay:10.37,2013-04-07 23:43:00,
2013-04-07 19:48:00,48.4,36.8,29.97,NW,315,10.4,10.4,64,0.00,,,0.07,WeatherDisplay:10.37,2013-04-07 23:48:00,
2013-04-07 19:53:00,48.2,36.6,29.97,NW,315,12.7,12.7,64,0.00,,,0.07,WeatherDisplay:10.37,2013-04-07 23:53:00,
2013-04-07 19:58:00,47.8,36.6,29.98,NW,315,5.8,5.8,65,0.00,,,0.07,WeatherDisplay:10.37,2013-04-07 23:58:00,
2013-04-07 20:03:00,47.7,36.5,29.98,NW,315,8.1,8.1,65,0.00,,,0.07,WeatherDisplay:10.37,2013-04-08 00:03:00,
2013-04-07 20:08:00,47.3,36.1,29.98,NW,315,5.8,5.8,65,0.00,,,0.07,WeatherDisplay:10.37,2013-04-08 00:08:00,
2013-04-07 20:13:00,47.1,36.0,29.99,NW,315,6.0,6.0,65,0.00,,,0.07,WeatherDisplay:10.37,2013-04-08 00:13:00,
2013-04-07 20:18:00,46.9,36.2,29.99,West,270,4.6,4.6,66,0.00,,,0.07,WeatherDisplay:10.37,2013-04-08 00:18:00,
2013-04-07 20:23:00,46.9,36.2,29.99,NW,315,8.1,8.1,66,0.00,,,0.07,WeatherDisplay:10.37,2013-04-08 00:23:00,
2013-04-07 20:28:00,46.8,36.0,29.99,NNW,338,3.5,3.5,66,0.00,,,0.07,WeatherDisplay:10.37,2013-04-08 00:28:00,
2013-04-07 20:33:00,46.4,35.7,30.00,NW,315,5.8,5.8,66,0.00,,,0.07,WeatherDisplay:10.37,2013-04-08 00:33:00,
2013-04-07 20:38:00,46.4,35.7,30.00,NW,315,4.6,4.6,66,0.00,,,0.07,WeatherDisplay:10.37,2013-04-08 00:38:00,
2013-04-07 20:43:00,46.2,35.5,30.00,NW,315,5.8,5.8,66,0.00,,,0.07,WeatherDisplay:10.37,2013-04-08 00:43:00,
2013-04-07 20:48:00,46.0,35.3,30.01,NW,315,2.3,2.3,66,0.00,,,0.07,WeatherDisplay:10.37,2013-04-08 00:48:00,
2013-04-07 20:53:00,45.9,35.1,30.01,West,270,2.3,2.3,66,0.00,,,0.07,WeatherDisplay:10.37,2013-04-08 00:53:00,
2013-04-07 20:58:00,45.7,35.0,30.01,NW,315,4.6,4.6,66,0.00,,,0.07,WeatherDisplay:10.37,2013-04-08 00:58:00,
2013-04-07 21:03:00,45.7,35.3,30.02,North,0,5.8,5.8,67,0.00,,,0.07,WeatherDisplay:10.37,2013-04-08 01:03:00,
2013-04-07 21:08:00,45.7,35.3,30.02,NW,315,5.8,5.8,67,0.00,,,0.07,WeatherDisplay:10.37,2013-04-08 01:08:00,
2013-04-07 21:13:00,45.3,34.6,30.02,NW,315,8.1,8.1,66,0.00,,,0.07,WeatherDisplay:10.37,2013-04-08 01:13:00,
2013-04-07 21:18:00,45.3,34.6,30.02,NW,315,5.8,5.8,66,0.00,,,0.07,WeatherDisplay:10.37,2013-04-08 01:18:00,
2013-04-07 21:23:00,45.1,34.5,30.03,NW,315,8.1,8.1,66,0.00,,,0.07,WeatherDisplay:10.37,2013-04-08 01:23:00,
2013-04-07 21:28:00,45.1,34.5,30.03,NW,315,5.8,5.8,66,0.00,,,0.07,WeatherDisplay:10.37,2013-04-08 01:28:00,
2013-04-07 21:34:00,45.1,34.5,30.03,WNW,292,2.3,3.1,66,0.00,,,0.07,WeatherDisplay:10.37,2013-04-08 01:34:00,
2013-04-07 21:39:00,45.1,34.5,30.03,NW,315,8.1,8.1,66,0.00,,,0.07,WeatherDisplay:10.37,2013-04-08 01:39:00,
2013-04-07 21:44:00,45.1,34.5,30.04,NW,315,5.8,5.8,66,0.00,,,0.07,WeatherDisplay:10.37,2013-04-08 01:44:00,
2013-04-07 21:49:00,45.1,34.5,30.04,NW,315,4.6,4.6,66,0.00,,,0.07,WeatherDisplay:10.37,2013-04-08 01:49:00,
2013-04-07 21:55:00,45.1,34.5,30.04,NW,315,4.6,4.6,66,0.00,,,0.07,WeatherDisplay:10.37,2013-04-08 01:55:00,
2013-04-07 22:00:00,45.1,34.5,30.05,North,0,3.5,3.5,66,0.00,,,0.07,WeatherDisplay:10.37,2013-04-08 02:00:00,
2013-04-07 22:05:00,44.8,34.5,30.05,North,0,8.1,8.1,67,0.00,,,0.07,WeatherDisplay:10.37,2013-04-08 02:05:00,
2013-04-07 22:10:00,44.8,34.5,30.05,North,0,4.6,4.6,67,0.00,,,0.07,WeatherDisplay:10.37,2013-04-08 02:10:00,
2013-04-07 22:15:00,44.8,34.5,30.05,NW,315,8.1,8.1,67,0.00,,,0.07,WeatherDisplay:10.37,2013-04-08 02:15:00,
2013-04-07 22:20:00,44.6,34.3,30.05,NW,315,5.8,5.8,67,0.00,,,0.07,WeatherDisplay:10.37,2013-04-08 02:20:00,
2013-04-07 22:25:00,44.4,34.5,30.05,NW,315,5.8,5.8,68,0.00,,,0.07,WeatherDisplay:10.37,2013-04-08 02:25:00,
2013-04-07 22:31:00,44.4,34.5,30.06,NW,315,4.6,4.6,68,0.00,,,0.07,WeatherDisplay:10.37,2013-04-08 02:31:00,
2013-04-07 22:36:00,44.2,34.7,30.06,NW,315,3.5,3.5,69,0.00,,,0.07,WeatherDisplay:10.37,2013-04-08 02:36:00,
2013-04-07 22:41:00,44.2,34.3,30.06,NW,315,3.5,3.5,68,0.00,,,0.07,WeatherDisplay:10.37,2013-04-08 02:41:00,
2013-04-07 22:46:00,44.2,34.3,30.06,NW,315,3.5,3.5,68,0.00,,,0.07,WeatherDisplay:10.37,2013-04-08 02:46:00,
2013-04-07 22:51:00,44.2,34.3,30.06,NW,315,5.8,5.8,68,0.00,,,0.07,WeatherDisplay:10.37,2013-04-08 02:51:00,
2013-04-07 22:56:00,44.1,34.2,30.06,NW,315,5.8,5.8,68,0.00,,,0.07,WeatherDisplay:10.37,2013-04-08 02:56:00,
2013-04-07 23:02:00,43.9,34.0,30.06,NW,315,3.5,3.5,68,0.00,,,0.07,WeatherDisplay:10.37,2013-04-08 03:02:00,
2013-04-07 23:07:00,43.9,34.0,30.06,NW,315,2.3,2.3,68,0.00,,,0.07,WeatherDisplay:10.37,2013-04-08 03:07:00,
2013-04-07 23:13:00,43.9,34.0,30.06,North,0,4.6,4.6,68,0.00,,,0.07,WeatherDisplay:10.37,2013-04-08 03:13:00,
2013-04-07 23:18:00,43.9,34.0,30.06,NW,315,3.5,3.5,68,0.00,,,0.07,WeatherDisplay:10.37,2013-04-08 03:18:00,
2013-04-07 23:23:00,43.9,33.6,30.06,North,0,5.8,5.8,67,0.00,,,0.07,WeatherDisplay:10.37,2013-04-08 03:23:00,
2013-04-07 23:28:00,43.7,33.5,30.07,NW,315,8.1,8.1,67,0.00,,,0.07,WeatherDisplay:10.37,2013-04-08 03:28:00,
2013-04-07 23:33:00,43.5,33.3,30.07,NW,315,4.6,4.6,67,0.00,,,0.07,WeatherDisplay:10.37,2013-04-08 03:33:00,
2013-04-07 23:38:00,43.5,33.3,30.07,NW,315,3.5,3.5,67,0.00,,,0.07,WeatherDisplay:10.37,2013-04-08 03:38:00,
2013-04-07 23:43:00,43.3,33.1,30.07,North,0,5.8,5.8,67,0.00,,,0.07,WeatherDisplay:10.37,2013-04-08 03:43:00,
2013-04-07 23:48:00,43.3,33.1,30.07,NW,315,5.8,5.8,67,0.00,,,0.07,WeatherDisplay:10.37,2013-04-08 03:48:00,
2013-04-07 23:54:00,43.3,33.1,30.08,NW,315,4.6,4.6,67,0.00,,,0.07,WeatherDisplay:10.37,2013-04-08 03:54:00,